createdAt,value
2019-06-10T00:01:11.948Z,4.30
2019-06-10T00:03:45.410Z,7.33
2019-06-10T00:06:20.812Z,6.17
2019-06-10T00:08:53.628Z,8.33
2019-06-10T00:11:26.866Z,6.80
2019-06-10T00:14:02.442Z,6.12
2019-06-10T00:16:34.966Z,3.95
2019-06-10T00:19:10.144Z,4.10
2019-06-10T00:21:42.995Z,6.87
2019-06-10T00:24:17.149Z,4.35
2019-06-10T00:26:51.020Z,6.25
2019-06-10T00:29:25.533Z,7.30
2019-06-10T00:32:01.728Z,3.83
2019-06-10T00:34:35.094Z,6.90
2019-06-10T00:37:10.308Z,5.58
2019-06-10T00:39:43.274Z,5.70
2019-06-10T00:42:16.514Z,4.75
2019-06-10T00:44:50.901Z,6.42
2019-06-10T00:47:24.177Z,4.75
2019-06-10T00:49:57.445Z,6.67
2019-06-10T00:52:30.922Z,4.28
2019-06-10T00:55:04.904Z,4.33
2019-06-10T00:57:41.705Z,4.70
2019-06-10T01:00:25.212Z,7.47
2019-06-10T01:02:51.773Z,6.08
2019-06-10T01:05:25.094Z,4.00
2019-06-10T01:07:58.442Z,4.80
2019-06-10T01:10:32.182Z,3.80
2019-06-10T01:13:05.348Z,3.85
2019-06-10T01:15:41.670Z,4.62
2019-06-10T01:18:32.024Z,3.00
2019-06-10T01:20:51.577Z,3.92
2019-06-10T01:23:24.387Z,6.50
2019-06-10T01:25:57.692Z,3.17
2019-06-10T01:28:31.403Z,4.50
2019-06-10T01:31:08.524Z,5.12
2019-06-10T01:33:41.113Z,4.62
2019-06-10T01:36:16.450Z,8.38
2019-06-10T01:38:51.187Z,3.70
2019-06-10T01:41:24.438Z,5.40
2019-06-10T01:43:57.762Z,5.97
2019-06-10T01:46:31.630Z,5.65
2019-06-10T01:49:05.000Z,6.17
2019-06-10T01:51:38.221Z,4.58
2019-06-10T01:54:12.391Z,7.65
2019-06-10T01:56:46.562Z,3.25
2019-06-10T01:59:21.940Z,6.87
2019-06-10T02:02:00.981Z,4.05
2019-06-10T02:04:34.587Z,6.45
2019-06-10T02:07:09.213Z,6.67
2019-06-10T02:09:42.896Z,8.10
2019-06-10T02:12:18.754Z,5.80
2019-06-10T02:14:51.125Z,5.65
2019-06-10T02:17:24.483Z,11.48
2019-06-10T02:19:57.850Z,6.03
2019-06-10T02:22:32.097Z,5.50
2019-06-10T02:25:05.680Z,7.40
2019-06-10T02:27:41.347Z,5.72
2019-06-10T02:30:26.316Z,6.17
2019-06-10T02:32:52.131Z,4.45
2019-06-10T02:35:30.446Z,5.58
2019-06-10T02:37:58.364Z,4.40
2019-06-10T02:40:35.773Z,6.67
2019-06-10T02:43:07.704Z,6.62
2019-06-10T02:45:44.207Z,3.80
2019-06-10T02:48:19.665Z,6.22
2019-06-10T02:51:08.312Z,6.40
2019-06-10T02:53:43.490Z,4.75
2019-06-10T02:56:17.721Z,5.35
2019-06-10T02:58:53.501Z,3.65
2019-06-10T03:01:31.884Z,10.72
2019-06-10T03:04:04.314Z,5.08
2019-06-10T03:06:39.986Z,4.28
2019-06-10T03:09:13.794Z,7.08
2019-06-10T03:11:45.724Z,11.35
2019-06-10T03:14:19.778Z,7.70
2019-06-10T03:16:57.635Z,5.65
2019-06-10T03:19:45.812Z,4.65
2019-06-10T03:22:05.602Z,6.58
2019-06-10T03:24:38.658Z,5.70
2019-06-10T03:27:12.638Z,7.65
2019-06-10T03:29:45.936Z,6.55
2019-06-10T03:32:20.144Z,5.10
2019-06-10T03:34:54.997Z,9.78
2019-06-10T03:37:28.353Z,7.05
2019-06-10T03:40:02.482Z,4.53
2019-06-10T03:42:36.218Z,5.50
2019-06-10T03:45:12.447Z,6.65
2019-06-10T03:47:45.035Z,14.15
2019-06-10T03:50:19.190Z,4.25
2019-06-10T03:52:52.528Z,5.15
2019-06-10T03:55:27.927Z,8.15
2019-06-10T03:58:02.225Z,8.20
2019-06-10T04:00:37.097Z,11.08
2019-06-10T04:03:12.121Z,6.67
2019-06-10T04:05:46.482Z,6.25
2019-06-10T04:08:22.030Z,5.60
2019-06-10T04:10:54.419Z,4.35
2019-06-10T04:13:28.470Z,5.30
2019-06-10T04:16:02.380Z,4.70
2019-06-10T04:18:35.971Z,6.50
2019-06-10T04:21:09.149Z,7.10
2019-06-10T04:23:42.641Z,6.15
2019-06-10T04:26:17.563Z,13.68
2019-06-10T04:28:53.063Z,6.37
2019-06-10T04:31:26.873Z,9.90
2019-06-10T04:34:02.941Z,8.68
2019-06-10T04:36:35.377Z,10.72
2019-06-10T04:39:09.162Z,5.67
2019-06-10T04:41:42.785Z,7.28
2019-06-10T04:44:16.039Z,8.45
2019-06-10T04:46:49.142Z,6.03
2019-06-10T04:49:25.088Z,8.78
2019-06-10T04:51:57.156Z,5.95
2019-06-10T04:54:30.460Z,5.25
2019-06-10T04:57:03.926Z,6.80
2019-06-10T04:59:38.411Z,6.30
2019-06-10T05:02:12.880Z,6.60
2019-06-10T05:04:46.254Z,8.75
2019-06-10T05:07:19.530Z,8.88
2019-06-10T05:09:52.732Z,8.08
2019-06-10T05:12:26.771Z,8.33
2019-06-10T05:15:03.282Z,6.92
2019-06-10T05:17:35.655Z,9.30
2019-06-10T05:20:09.503Z,8.03
2019-06-10T05:22:42.708Z,8.70
2019-06-10T05:25:17.032Z,8.83
2019-06-10T05:27:52.220Z,11.70
2019-06-10T05:30:29.107Z,8.70
2019-06-10T05:33:03.073Z,7.92
2019-06-10T05:35:43.630Z,8.40
2019-06-10T05:38:18.733Z,8.30
2019-06-10T05:40:52.219Z,7.75
2019-06-10T05:43:26.396Z,13.28
2019-06-10T05:46:02.589Z,8.43
2019-06-10T05:48:35.185Z,8.75
2019-06-10T05:51:08.650Z,6.60
2019-06-10T05:53:42.735Z,6.92
2019-06-10T05:56:16.925Z,8.63
2019-06-10T05:58:52.253Z,7.53
2019-06-10T06:01:25.657Z,11.78
2019-06-10T06:03:58.986Z,9.00
2019-06-10T06:06:34.071Z,12.03
2019-06-10T06:09:08.882Z,6.92
2019-06-10T06:11:43.055Z,14.33
2019-06-10T06:14:16.597Z,8.53
2019-06-10T06:16:49.856Z,7.17
2019-06-10T06:19:23.317Z,13.58
2019-06-10T06:21:56.663Z,8.78
2019-06-10T06:24:29.929Z,8.18
2019-06-10T06:27:03.378Z,8.98
2019-06-10T06:29:38.250Z,6.87
2019-06-10T06:32:13.182Z,15.00
2019-06-10T06:34:47.595Z,11.68
2019-06-10T06:37:23.203Z,13.50
2019-06-10T06:39:56.136Z,14.30
2019-06-10T06:42:29.565Z,11.73
2019-06-10T06:45:03.352Z,12.63
2019-06-10T06:47:37.699Z,9.33
2019-06-10T06:50:13.046Z,11.90
2019-06-10T06:53:16.924Z,10.25
2019-06-10T06:55:23.388Z,13.68
2019-06-10T06:57:56.626Z,12.05
2019-06-10T07:00:52.964Z,11.57
2019-06-10T07:03:12.550Z,9.88
2019-06-10T07:05:48.475Z,11.78
2019-06-10T07:08:22.784Z,10.98
2019-06-10T07:10:58.557Z,13.62
2019-06-10T07:13:37.125Z,11.45
2019-06-10T07:16:09.555Z,10.10
2019-06-10T07:18:49.554Z,10.80
2019-06-10T07:21:17.989Z,11.83
2019-06-10T07:23:52.891Z,12.60
2019-06-10T07:26:26.498Z,12.47
2019-06-10T07:29:02.738Z,10.93
2019-06-10T07:31:36.548Z,13.28
2019-06-10T07:34:10.006Z,12.47
2019-06-10T07:36:45.190Z,10.40
2019-06-10T07:39:18.505Z,13.18
2019-06-10T07:41:52.881Z,12.73
2019-06-10T07:44:26.404Z,12.60
2019-06-10T07:47:02.409Z,12.90
2019-06-10T07:49:35.372Z,11.12
2019-06-10T07:52:18.500Z,11.60
2019-06-10T07:54:45.402Z,12.28
2019-06-10T07:57:18.810Z,15.45
2019-06-10T07:59:52.460Z,15.93
2019-06-10T08:02:25.922Z,10.53
2019-06-10T08:04:59.348Z,11.40
2019-06-10T08:07:33.483Z,12.28
2019-06-10T08:10:13.260Z,10.10
2019-06-10T08:12:48.273Z,9.68
2019-06-10T08:15:22.996Z,15.32
2019-06-10T08:17:57.063Z,13.22
2019-06-10T08:20:47.629Z,11.15
2019-06-10T08:23:23.655Z,12.35
2019-06-10T08:25:57.981Z,13.65
2019-06-10T08:28:33.246Z,15.15
2019-06-10T08:31:06.598Z,9.65
2019-06-10T08:33:42.560Z,11.97
2019-06-10T08:36:15.244Z,15.95
2019-06-10T08:38:49.170Z,13.13
2019-06-10T08:41:23.200Z,9.78
2019-06-10T08:43:56.878Z,12.33
2019-06-10T08:46:32.993Z,11.28
2019-06-10T08:49:07.102Z,12.05
2019-06-10T08:51:45.427Z,11.57
2019-06-10T08:54:16.162Z,12.53
2019-06-10T08:56:50.906Z,14.95
2019-06-10T08:59:25.906Z,11.97
2019-06-10T09:01:59.343Z,12.45
2019-06-10T09:04:33.198Z,15.03
2019-06-10T09:07:06.627Z,19.12
2019-06-10T09:09:40.511Z,11.33
2019-06-10T09:12:28.735Z,12.65
2019-06-10T09:14:52.998Z,11.80
2019-06-10T09:17:25.716Z,13.85
2019-06-10T09:19:59.131Z,11.68
2019-06-10T09:22:32.775Z,14.47
2019-06-10T09:25:07.166Z,16.73
2019-06-10T09:27:44.941Z,14.43
2019-06-10T09:30:18.779Z,14.63
2019-06-10T09:32:56.361Z,10.72
2019-06-10T09:35:28.846Z,12.58
2019-06-10T09:38:03.700Z,15.93
2019-06-10T09:41:00.815Z,11.57
2019-06-10T09:43:28.380Z,11.57
2019-06-10T09:46:03.673Z,13.60
2019-06-10T09:48:37.254Z,11.43
2019-06-10T09:51:13.362Z,17.23
2019-06-10T09:54:01.115Z,11.97
2019-06-10T09:56:29.493Z,15.98
2019-06-10T09:59:17.889Z,10.82
2019-06-10T10:01:58.720Z,14.10
2019-06-10T10:04:32.893Z,10.18
2019-06-10T10:07:34.671Z,12.95
2019-06-10T10:10:23.995Z,17.87
2019-06-10T10:13:28.495Z,11.08
2019-06-10T10:16:08.836Z,14.45
2019-06-10T10:18:48.297Z,10.05
2019-06-10T10:21:36.256Z,12.98
2019-06-10T10:24:15.081Z,11.43
2019-06-10T10:26:56.952Z,13.30
2019-06-10T10:29:27.272Z,17.77
2019-06-10T10:32:02.621Z,11.38
2019-06-10T10:34:36.223Z,13.03
2019-06-10T10:37:12.234Z,11.97
2019-06-10T10:39:49.066Z,13.80
2019-06-10T10:42:23.869Z,12.07
2019-06-10T10:44:59.262Z,14.23
2019-06-10T10:47:33.866Z,11.97
2019-06-10T10:50:13.654Z,10.00
2019-06-10T10:52:46.766Z,8.30
2019-06-10T10:55:33.481Z,10.85
2019-06-10T10:58:45.350Z,17.48
2019-06-10T11:01:23.784Z,13.00
2019-06-10T11:03:59.238Z,11.28
2019-06-10T11:06:32.410Z,15.83
2019-06-10T11:09:12.987Z,13.38
2019-06-10T11:11:48.862Z,13.65
2019-06-10T11:14:23.068Z,12.40
2019-06-10T11:16:58.882Z,9.95
2019-06-10T11:19:32.939Z,11.12
2019-06-10T11:22:06.167Z,14.58
2019-06-10T11:24:42.283Z,12.35
2019-06-10T11:27:14.133Z,12.55
2019-06-10T11:29:48.171Z,11.43
2019-06-10T11:32:21.820Z,16.82
2019-06-10T11:34:56.875Z,13.15
2019-06-10T11:37:30.660Z,9.80
2019-06-10T11:40:04.979Z,10.75
2019-06-10T11:42:38.615Z,12.47
2019-06-10T11:45:12.729Z,12.95
2019-06-10T11:47:46.690Z,9.38
2019-06-10T11:50:23.228Z,14.70
2019-06-10T11:53:00.234Z,11.08
2019-06-10T11:55:33.332Z,20.10
2019-06-10T11:58:07.157Z,20.00
2019-06-10T12:00:42.530Z,13.98
2019-06-10T12:03:15.518Z,14.03
2019-06-10T12:05:49.099Z,11.25
2019-06-10T12:08:23.702Z,10.03
2019-06-10T12:11:01.820Z,10.15
2019-06-10T12:13:34.667Z,10.60
2019-06-10T12:18:44.511Z,13.48
2019-06-10T12:21:17.811Z,9.98
2019-06-10T12:23:54.809Z,10.85
2019-06-10T12:26:26.179Z,11.22
2019-06-10T12:29:01.710Z,17.95
2019-06-10T12:31:34.928Z,12.10
2019-06-10T12:34:08.723Z,15.60
2019-06-10T12:36:41.849Z,12.47
2019-06-10T12:39:58.201Z,11.20
2019-06-10T12:42:33.776Z,9.78
2019-06-10T12:45:12.756Z,11.08
2019-06-10T12:48:16.321Z,9.80
2019-06-10T12:50:55.329Z,14.85
2019-06-10T12:53:26.659Z,12.13
2019-06-10T12:56:02.751Z,18.73
2019-06-10T12:58:34.673Z,11.00
2019-06-10T13:01:08.135Z,13.18
2019-06-10T13:03:43.640Z,10.60
2019-06-10T13:06:18.773Z,10.00
2019-06-10T13:08:56.387Z,13.35
2019-06-10T13:11:29.525Z,9.53
2019-06-10T13:14:05.113Z,13.48
2019-06-10T13:16:37.751Z,9.43
2019-06-10T13:19:13.152Z,14.38
2019-06-10T13:21:45.876Z,10.82
2019-06-10T13:24:22.323Z,10.08
2019-06-10T13:26:56.540Z,12.28
2019-06-10T13:29:38.151Z,10.88
2019-06-10T13:32:12.825Z,8.33
2019-06-10T13:34:48.858Z,10.53
2019-06-10T13:37:22.822Z,11.25
2019-06-10T13:39:57.455Z,12.80
2019-06-10T13:42:35.687Z,12.18
2019-06-10T13:45:08.180Z,12.13
2019-06-10T13:48:01.127Z,9.80
2019-06-10T13:50:38.861Z,11.33
2019-06-10T13:53:13.544Z,9.53
2019-06-10T13:55:47.282Z,13.83
2019-06-10T13:58:23.053Z,9.60
2019-06-10T14:00:56.227Z,10.38
2019-06-10T14:03:32.678Z,9.50
2019-06-10T14:06:25.798Z,12.47
2019-06-10T14:08:43.194Z,20.43
2019-06-10T14:11:18.714Z,8.35
2019-06-10T14:13:54.723Z,13.30
2019-06-10T14:16:28.552Z,8.48
2019-06-10T14:19:05.760Z,8.50
2019-06-10T14:21:39.379Z,13.62
2019-06-10T14:24:15.977Z,9.68
2019-06-10T14:26:48.671Z,13.70
2019-06-10T14:29:22.356Z,11.88
2019-06-10T14:31:56.060Z,12.95
2019-06-10T14:34:29.891Z,11.75
2019-06-10T14:37:03.806Z,10.13
2019-06-10T14:39:38.993Z,14.28
2019-06-10T14:42:15.007Z,9.15
2019-06-10T14:44:53.931Z,15.48
2019-06-10T14:47:28.730Z,18.98
2019-06-10T14:50:05.191Z,12.33
2019-06-10T14:52:39.043Z,12.68
2019-06-10T14:55:16.401Z,9.50
2019-06-10T14:57:48.510Z,11.28
2019-06-10T15:00:23.741Z,18.52
2019-06-10T15:02:57.616Z,12.50
2019-06-10T15:05:32.383Z,10.65
2019-06-10T15:08:07.216Z,10.05
2019-06-10T15:10:43.019Z,12.03
2019-06-10T15:13:16.110Z,9.70
2019-06-10T15:15:49.533Z,12.88
2019-06-10T15:18:23.873Z,14.03
2019-06-10T15:20:57.781Z,9.88
2019-06-10T15:23:32.529Z,12.40
2019-06-10T15:26:09.914Z,10.70
2019-06-10T15:28:43.722Z,10.95
2019-06-10T15:31:19.555Z,11.10
2019-06-10T15:33:53.408Z,10.23
2019-06-10T15:36:27.353Z,8.08
2019-06-10T15:39:01.081Z,9.75
2019-06-10T15:41:36.221Z,14.73
2019-06-10T15:44:09.869Z,12.85
2019-06-10T15:46:43.386Z,11.48
2019-06-10T15:49:19.359Z,13.78
2019-06-10T15:51:52.775Z,23.73
2019-06-10T15:54:26.765Z,14.20
2019-06-10T15:57:00.342Z,12.78
2019-06-10T15:59:34.146Z,9.70
2019-06-10T16:02:13.866Z,10.88
2019-06-10T16:04:46.727Z,13.35
2019-06-10T16:07:25.774Z,15.85
2019-06-10T16:10:03.813Z,10.10
2019-06-10T16:13:03.437Z,10.55
2019-06-10T16:15:43.469Z,11.05
2019-06-10T16:18:20.088Z,11.15
2019-06-10T16:20:54.667Z,9.68
2019-06-10T16:23:29.044Z,13.18
2019-06-10T16:26:29.993Z,15.85
2019-06-10T16:29:15.206Z,12.53
2019-06-10T16:31:52.951Z,12.47
2019-06-10T16:34:41.306Z,13.80
2019-06-10T16:52:15.719Z,11.85
2019-06-10T16:54:58.108Z,12.28
2019-06-10T16:57:33.445Z,14.58
2019-06-10T17:00:18.331Z,13.93
2019-06-10T17:03:15.144Z,11.33
2019-06-10T17:05:53.237Z,11.22
2019-06-10T17:08:28.429Z,15.10
2019-06-10T17:11:03.282Z,12.35
2019-06-10T17:13:37.466Z,14.35
2019-06-10T17:16:12.782Z,12.45
2019-06-10T17:18:47.087Z,12.45
2019-06-10T17:21:24.709Z,12.18
2019-06-10T17:23:58.346Z,11.85
2019-06-10T17:26:37.874Z,10.10
2019-06-10T17:29:11.874Z,11.10
2019-06-10T17:31:49.029Z,14.63
2019-06-10T17:34:25.963Z,10.03
2019-06-10T17:36:59.557Z,10.95
2019-06-10T17:39:34.913Z,9.70
2019-06-10T17:42:12.418Z,12.45
2019-06-10T17:44:52.906Z,10.13
2019-06-10T17:47:34.695Z,11.70
2019-06-10T17:50:12.653Z,12.93
2019-06-10T17:52:46.807Z,13.40
2019-06-10T17:55:24.874Z,14.85
2019-06-10T17:57:57.879Z,13.58
2019-06-10T18:00:36.071Z,15.80
2019-06-10T18:03:13.019Z,13.90
2019-06-10T18:05:48.591Z,17.00
2019-06-10T18:08:24.399Z,15.50
2019-06-10T18:11:03.072Z,18.92
2019-06-10T18:13:38.079Z,15.90
2019-06-10T18:16:14.462Z,16.27
2019-06-10T18:18:48.864Z,21.30
2019-06-10T18:21:24.748Z,18.35
2019-06-10T18:24:05.035Z,15.48
2019-06-10T18:26:39.086Z,15.10
2019-06-10T18:29:18.021Z,13.93
2019-06-10T18:31:54.872Z,11.63
2019-06-10T18:34:37.810Z,13.83
2019-06-10T18:37:09.679Z,13.65
2019-06-10T18:39:43.196Z,16.60
2019-06-10T18:42:19.603Z,16.05
2019-06-10T18:44:53.071Z,12.53
2019-06-10T18:47:27.547Z,17.30
2019-06-10T18:50:01.198Z,16.52
2019-06-10T18:52:34.583Z,14.55
2019-06-10T18:55:09.207Z,17.55
2019-06-10T18:57:42.713Z,16.17
2019-06-10T19:00:17.697Z,14.28
2019-06-10T19:03:08.646Z,16.82
2019-06-10T19:05:26.208Z,18.87
2019-06-10T19:07:59.371Z,15.00
2019-06-10T19:10:35.299Z,15.45
2019-06-10T19:13:07.751Z,16.07
2019-06-10T19:15:42.592Z,17.90
2019-06-10T19:18:17.021Z,14.98
2019-06-10T19:20:52.389Z,15.38
2019-06-10T19:23:25.040Z,13.75
2019-06-10T19:25:58.216Z,14.00
2019-06-10T19:28:33.892Z,14.53
2019-06-10T19:31:06.319Z,14.10
2019-06-10T19:33:41.330Z,13.08
2019-06-10T19:36:15.496Z,16.85
2019-06-10T19:38:48.787Z,15.00
2019-06-10T19:41:25.466Z,20.35
2019-06-10T19:43:59.780Z,16.05
2019-06-10T19:46:34.244Z,16.48
2019-06-10T19:49:07.743Z,16.95
2019-06-10T19:51:46.249Z,20.00
2019-06-10T19:54:19.397Z,20.17
2019-06-10T19:56:52.705Z,24.63
2019-06-10T19:59:25.891Z,28.07
2019-06-10T20:01:59.004Z,42.03
2019-06-10T20:04:33.446Z,31.20
2019-06-10T20:07:07.161Z,28.30
2019-06-10T20:09:43.513Z,30.40
2019-06-10T20:12:15.390Z,29.12
2019-06-10T20:14:49.861Z,33.02
2019-06-10T20:17:23.282Z,27.25
2019-06-10T20:19:56.385Z,30.37
2019-06-10T20:22:31.944Z,27.73
2019-06-10T20:25:04.758Z,25.68
2019-06-10T20:27:37.927Z,25.65
2019-06-10T20:30:24.287Z,25.15
2019-06-10T20:32:51.878Z,25.05
2019-06-10T20:35:23.214Z,26.42
2019-06-10T20:37:57.592Z,25.95
2019-06-10T20:40:32.071Z,24.85
2019-06-10T20:43:05.841Z,28.50
2019-06-10T20:45:39.533Z,28.57
2019-06-10T20:48:12.939Z,24.63
2019-06-10T20:50:47.361Z,23.47
2019-06-10T20:53:21.056Z,24.27
2019-06-10T20:55:57.615Z,27.15
2019-06-10T20:58:29.214Z,20.43
2019-06-10T21:01:04.586Z,20.30
2019-06-10T21:03:39.111Z,21.07
2019-06-10T21:06:14.301Z,19.90
2019-06-10T21:08:49.602Z,20.65
2019-06-10T21:11:23.240Z,20.85
2019-06-10T21:13:56.842Z,20.48
2019-06-10T21:16:32.170Z,17.30
2019-06-10T21:19:05.907Z,18.75
2019-06-10T21:21:40.388Z,21.15
2019-06-10T21:24:14.588Z,24.95
2019-06-10T21:26:49.902Z,21.17
2019-06-10T21:29:24.000Z,16.60
2019-06-10T21:31:57.481Z,19.15
2019-06-10T21:34:32.712Z,18.35
2019-06-10T21:37:05.845Z,22.32
2019-06-10T21:39:39.347Z,15.60
2019-06-10T21:42:12.881Z,18.75
2019-06-10T21:44:46.301Z,19.82
2019-06-10T21:47:19.733Z,17.95
2019-06-10T21:49:54.644Z,23.15
2019-06-10T21:52:28.337Z,18.87
2019-06-10T21:55:02.956Z,19.90
2019-06-10T21:57:36.633Z,22.30
2019-06-10T22:00:14.071Z,22.80
2019-06-10T22:02:51.062Z,21.10
2019-06-10T22:05:24.411Z,22.00
2019-06-10T22:07:57.876Z,24.47
2019-06-10T22:10:33.409Z,23.02
2019-06-10T22:13:07.276Z,23.20
2019-06-10T22:15:42.527Z,21.02
2019-06-10T22:18:15.573Z,23.15
2019-06-10T22:20:48.992Z,24.35
2019-06-10T22:23:23.263Z,22.30
2019-06-10T22:25:57.720Z,25.43
2019-06-10T22:28:32.797Z,21.57
2019-06-10T22:31:19.117Z,20.85
2019-06-10T22:33:43.125Z,24.37
2019-06-10T22:36:16.650Z,24.45
2019-06-10T22:38:50.098Z,25.37
2019-06-10T22:41:25.063Z,26.73
2019-06-10T22:43:59.679Z,24.15
2019-06-10T22:46:33.443Z,24.43
2019-06-10T22:49:07.698Z,22.27
2019-06-10T22:51:42.872Z,23.83
2019-06-10T22:54:15.952Z,19.98
2019-06-10T22:56:49.673Z,21.93
2019-06-10T22:59:23.056Z,22.13
2019-06-10T23:01:57.981Z,24.20
2019-06-10T23:04:33.141Z,21.45
2019-06-10T23:07:06.469Z,23.85
2019-06-10T23:09:39.861Z,21.10
2019-06-10T23:12:13.273Z,26.45
2019-06-10T23:14:46.599Z,25.12
2019-06-10T23:17:21.918Z,24.65
2019-06-10T23:19:56.546Z,26.77
2019-06-10T23:22:30.149Z,21.07
2019-06-10T23:25:03.524Z,23.52
2019-06-10T23:27:36.905Z,21.20
2019-06-10T23:30:11.730Z,28.42
2019-06-10T23:32:45.420Z,22.85
2019-06-10T23:35:18.871Z,24.60
2019-06-10T23:37:55.141Z,23.90
2019-06-10T23:40:27.473Z,21.90
2019-06-10T23:43:01.648Z,23.30
2019-06-10T23:45:35.866Z,22.60
2019-06-10T23:48:09.235Z,21.55
2019-06-10T23:50:43.686Z,21.70
2019-06-10T23:53:17.312Z,22.13
2019-06-10T23:55:51.788Z,20.77
2019-06-10T23:58:25.570Z,23.05
